Terminal Aerodrome Forecast
Issued by NWS

Home | Current Version | Previous Version | Text Only | Print | Product List | Glossary On
Versions: 1 2 3 4 5 6 7 8 9 10 11 12 13 14 15 16 17 18 19 20 21 22 23
000
FTUS41 KOKX 032300
TAFSWF
TAF
KSWF 032328Z 0400/0506 17009KT 2SM -PLSN FEW004 OVC008
     FM040200 21008KT 2SM FZRA OVC008
     FM040700 24007KT 1SM BR OVC004 WS020/25045KT
     FM041200 27007KT 6SM BR SCT010 OVC040
     FM041700 27007KT P6SM SCT020 BKN050
     FM050000 29005KT 6SM BR BKN020 OVC050
      AMD NOT SKED=

USA.gov is the U.S. government's official web portal to all federal, state and local government web resources and services.